AREA preflight bulletin
Updated "live" 19 Jan 2018, 09:04

back to the map




METAR og TAF


ILULISSAT
  SPECI(AL) BGJN 190901Z VRB02KT 9999 FEW210 M11/M19 Q1010=
  AKTUEL BGJN 190850Z AUTO VRB02KT 9999NDV NCD M11/M19 Q1010=
  TAF 9 timer BGJN 190903Z 1909/1918 VRB05KT 9999 FEW200 TEMPO 1909/1918 08015KT DRSN=

AASIAAT
  AKTUEL BGAA 190850Z AUTO 11007KT 9999NDV NCD M14/M18 Q1009=

UUMMANNAQ/QAARSUT
  AKTUEL BGUQ 190850Z AUTO 12012KT 9999NDV NCD M13/M17 Q1010=
  TAF 9 timer BGUQ 181914Z 1819/1820 CNL=

NUUK
  AKTUEL BGGH 190850Z AUTO 10004KT 9999NDV FEW200/// M17/M20 Q1005=
  TAF 9 timer BGGH 182035Z 1821/1901 09006KT 9999 FEW010=

KANGERLUSSUAQ
  AKTUEL BGSF 190850Z AUTO 05007KT 9999NDV NCD M30/M34 Q1010=
  TAF 24 timer BGSF 190457Z 1906/2012 06010KT 9999 FEW200=

QEQERTARSUAQ
  AKTUEL

QASIGIANNGUIT
  AKTUEL BGCH 190850Z AUTO 07003KT //// ///////// M17/M23 Q1009=


SIGMETS:

Ingen SIGMET fundet:

SNOWTAM:

ICAO
BGGH (NUUK)

valid from:
1801182232

Notam_id:
0355

SNOWTAM 0355 A)BGGH B)01182232 C)05 F)38/38/38 G)2/2/2 H)4/4/3 N)38/GOOD R)8/POOR T)RWY CONTAMINATION 100 PERCENT 1MM RIME AND 10 PERCENT 1MM COMPACTED SNOW - MEASURED FRICTION COEFFICIENTS 39/39/33 SKH



NOTAM/SNOWTAM for operationel use has to be confirmed with the
nearest AIS Briefing Office prior to a flight.

ICAO
BGJN (ILULISSAT)

FIR
BGGL

Notam_id:
BGB0891/17

valid from:
1712041200

E) EVERY SECOND APCH LIGHT RWY 07/25 OUT OF SERVICE

valid to:
1801312359




ICAO
BGAA (AASIAAT)

FIR
BGGL

Notam_id:
BGA0269/17

valid from:
1706081136

D) DAILY 1100-1115 2300-2315


E) ASCENT OR WEATHER BALLOON TAKES PLACE TWICE A DAY 1100-1115 AND 2300-2315. POSN 684201N0525105W LOCATED WEST OF THE AIRPORT AT A DISTANCE OF APPROX 3 KM. THE BALLOON CAN RISE TO A HEIGHT OF UP TO 35 KM. REF AIP GREENLAND AD 2 - BGAA - 4. F) SFC G) FL999

valid to:
PERM




ICAO
BGUQ (UUMMANNAQ/QAARSUT)

FIR
BGGL

Notam_id:
BGB0960/17

valid from:
1712291255

E) CRASHTENDER FOAM CAPACITY REDUCED.

valid to:
1801311700


Replacing:
BGB0792/17

ICAO
BGUQ (UUMMANNAQ/QAARSUT)

FIR
BGGL

Notam_id:
BGB0918/17

valid from:
1801010001

E) OPERATIONAL HOURS: AD: 1200-1900 (1100-1800) UTC EXC SAT/SUN/HOL. PPR BEFORE END OF PUBLISHED OPR HR. () FROM LAST SUNDAY IN MARCH UNTIL LAST SUNDAY INCL. IN OCTOBER

valid to:
PERM




ICAO
BGGL (SONDRESTROM FIR)

FIR
BGGL

Notam_id:
BGA0014/18

valid from:
1803010000

E) TRIGGER NOTAM - PERM AIP AIRAC AMDT 02/18 WEF 01 MAR 2018. SONDRESTROM FIR RENAMED NUUK FIR

valid to:
1803142359




ICAO
BGGL (SONDRESTROM FIR)

FIR
BGGL

Notam_id:
BGA0571/17

valid from:
1802010000

E) TRIGGER NOTAM - PERM AIP AIRAC AMDT 01/18 WEF 01 FEB 2018. NEW SIGNIFICANT POINT GIGOM ADDED. REF GEN 3.5: CHANGES IN CHAPTER 3 (METEOROLOGICAL OBSERVATIONS AND REPORTS) AT BGUK.

valid to:
1802142359




ICAO
BGGL (SONDRESTROM FIR)

FIR
BGGL

Notam_id:
BGA0002/18

valid from:
1801010559

E) CHECKLIST YEAR=2017 0269 0495 0539 0548 0571 0593 0594 0595 YEAR=2018 0001 LATEST PUBLICATIONS AIP AIRAC AMDT IFR 001/2018 EFFECTIVE DATE 01 FEB 18 AIP AMDT IFR 012/2017 EFFECTIVE DATE 21 DEC 17 AIP SUP IFR 004/2017 EFFECTIVE DATE 10 OCT 17 AIC IFR A002/2017 EFFECTIVE DATE 31 AUG 17

valid to:
1802010559EST


Replacing:
BGA0554/17

ICAO
BGGL (SONDRESTROM FIR)

FIR
BGGL

Notam_id:
BGB0001/18

valid from:
1801010559

E) CHECKLIST YEAR=2017 0740 0775 0806 0870 0891 0901 0902 0913 0914 0915 0918 0920 0921 0922 0923 0924 0930 0944 0945 0946 0959 0960 0965 YEAR=2018 NIL LATEST PUBLICATIONS AIP AIRAC AMDT IFR 001/2018 EFFECTIVE DATE 01 FEB 18 AIP AMDT IFR 012/2017 EFFECTIVE DATE 21 DEC 17 AIP SUP IFR 004/2017 EFFECTIVE DATE 10 OCT 17 AIC IFR A002/2017 EFFECTIVE DATE 31 AUG 17

valid to:
1802010559EST


Replacing:
BGB0884/17

ICAO
BGGL (SONDRESTROM FIR)

FIR
BGGL

Notam_id:
BGC0001/18

valid from:
1801010559

E) CHECKLIST YEAR=2017 0055 0056 0061 0062 0063 0064 0065 0066 0067 0068 0069 0070 0071 0072 0073 0074 0075 0076 0077 0078 0082 0084 YEAR=2018 NIL LATEST PUBLICATIONS AIP AIRAC AMDT IFR 001/2018 EFFECTIVE DATE 01 FEB 18 AIP AMDT IFR 012/2017 EFFECTIVE DATE 21 DEC 17 AIP SUP IFR 004/2017 EFFECTIVE DATE 10 OCT 17 AIC IFR A002/2017 EFFECTIVE DATE 31 AUG 17

valid to:
1802010559EST


Replacing:
BGC0059/17

ICAO
BGGH (NUUK)

FIR
BGGL

Notam_id:
BGB0930/17

valid from:
1712181907

E) ERROR IN CHART FOR RNAV (GNSS) APPROACH RWY 23. WITH REF AIP GREENLAND AD 2-BGGH RNAV (GNSS) RWY 23-1. NEW OCA(H) LNAV/VNAV CLIMB 2.5 PERCENT CAT A TO READ 1310 (1029) INSTEAD OF 1230. NEW OCA(H) LNAV/VNAV CLIMB 2.5 PERCENT CAT B TO READ 1340 (1059) INSTEAD OF 1250. NEW OCA(H) LNAV/VNAV CLIMB 5.0 PERCENT CAT A TO READ 1300 (1019) INSTEAD OF 1070. NEW OCA(H) LNAV/VNAV CLIMB 5.0 PERCENT CAT B TO READ 1320 (1039) INSTEAD OF 1110. NEW OCA(H) LNAV CLIMB 5.0 PERCENT CAT A TO READ 1150 (869) IN-STEAD OF 1130. NEW OCA(H) LNAV CLIMB 5.0 PERCENT CAT B TO READ 1240 (959) INSTEAD OF 1230.

valid to:
PERM




ICAO
BGGH (NUUK)

FIR
BGGL

Notam_id:
BGB0806/17

valid from:
1712070000

E) ERROR IN CODING TABLE FOR RNAV (GNSS) APPROACH RWY 23. WITH REF AIP GREENLAND AD 2 ? BGGH RNAV (GNSS) RWY 23 - 2, EFFECTIVE DATE 07 DEC 17. CORRECT THE PATH DESCRIPTOR FOR SERIAL NUMBER 060 TO READ TF INSTEAD OF DF.

valid to:
PERM




ICAO
BGGH (NUUK)

FIR
BGGL

Notam_id:
BGB0914/17

valid from:
1802010000

E) TRIGGER NOTAM - PERM AIP AIRAC AMDT 01/18 WEF 01 FEB 2018. CORRECTION ON CODING TABLE TO RNAV (GNSS) RWY 23.

valid to:
1802142359




ICAO
BGGH (NUUK)

FIR
BGGL

Notam_id:
BGB0946/17

valid from:
1712281052

E) BGGH AFIS FREQ 119,100 MHZ NO COVERAGE IN SEKTOR BETWEEN 060 DEG MAG AND 210 DEG MAG BELOW FL100.

valid to:
1803311500


Replacing:
BGB0814/17

ICAO
BGSF (KANGERLUSSUAQ)

FIR
BGGL

Notam_id:
BGA0016/18

valid from:
1801121113

E) PAPI LIGHTS ARE SET ON 10 PERCENT INTENSITY. 20 MINUTES PRIOR NOTICE REQUIRED TO CHANGE SETTING.

valid to:
1803112359




ICAO
BGSF (KANGERLUSSUAQ)

FIR
BGGL

Notam_id:
BGA0017/18

valid from:
1801121115

E) APCH LIGHTS ARE SET ON 10 PERCENT INTENSITY. 20 MINUTES PRIOR NOTICE REQUIRED TO CHANGE SETTING.

valid to:
1803112359




ICAO
BGSF (KANGERLUSSUAQ)

FIR
BGGL

Notam_id:
BGA0018/18

valid from:
1801121116

E) RWY EDGE LIGHTS ARE SET ON 10 PERCENT INTENSITY. 20 MINUTES PRIOR NOTICE REQUIRED TO CHANGE SETTING.

valid to:
1803112359




ICAO
BGSF (KANGERLUSSUAQ)

FIR
BGGL

Notam_id:
BGA0015/18

valid from:
1803010000

E) TRIGGER NOTAM - PERM AIP AIRAC AMDT 02/18 WEF 01 MAR 2018. CHANGES AS A CONSEQUENCE OF RENAMING SONDRESTROM FIR TO NUUK FIR. NEW REMARK CONCERNING TWY D

valid to:
1803142359




ICAO
BGSF (KANGERLUSSUAQ)

FIR
BGGL

Notam_id:
BGA0539/17

valid from:
1711211100

E) TWY D CLSD BTW SUNSET AND SUNRISE. IN SPECIAL CASES MARSHALLING CAN BE REQ.

valid to:
PERM





Copyright Naviair   2003-2016